sensor_id;sensor_type;location;lat;lon;timestamp;temperature;humidity
75457;SHT31;64036;48.266;14.192;2023-10-09T00:00:11;12.64;76.96
75457;SHT31;64036;48.266;14.192;2023-10-09T00:02:57;12.63;76.91
75457;SHT31;64036;48.266;14.192;2023-10-09T00:05:26;12.63;76.87
75457;SHT31;64036;48.266;14.192;2023-10-09T00:08:11;12.63;76.86
75457;SHT31;64036;48.266;14.192;2023-10-09T00:11:01;12.60;76.72
75457;SHT31;64036;48.266;14.192;2023-10-09T00:13:39;12.60;76.57
75457;SHT31;64036;48.266;14.192;2023-10-09T00:16:14;12.59;76.55
75457;SHT31;64036;48.266;14.192;2023-10-09T00:18:42;12.58;76.72
75457;SHT31;64036;48.266;14.192;2023-10-09T00:21:17;12.55;76.94
75457;SHT31;64036;48.266;14.192;2023-10-09T00:23:48;12.53;77.09
75457;SHT31;64036;48.266;14.192;2023-10-09T00:26:24;12.51;77.29
75457;SHT31;64036;48.266;14.192;2023-10-09T00:28:51;12.46;77.44
75457;SHT31;64036;48.266;14.192;2023-10-09T00:31:20;12.42;77.61
75457;SHT31;64036;48.266;14.192;2023-10-09T00:34:11;12.41;77.62
75457;SHT31;64036;48.266;14.192;2023-10-09T00:36:43;12.41;77.50
75457;SHT31;64036;48.266;14.192;2023-10-09T00:39:16;12.44;77.38
75457;SHT31;64036;48.266;14.192;2023-10-09T00:42:03;12.45;77.21
75457;SHT31;64036;48.266;14.192;2023-10-09T00:44:31;12.47;77.12
75457;SHT31;64036;48.266;14.192;2023-10-09T00:47:07;12.47;76.99
75457;SHT31;64036;48.266;14.192;2023-10-09T00:52:31;12.52;76.76
75457;SHT31;64036;48.266;14.192;2023-10-09T00:55:22;12.52;76.64
75457;SHT31;64036;48.266;14.192;2023-10-09T00:58:03;12.53;76.62
75457;SHT31;64036;48.266;14.192;2023-10-09T01:00:37;12.55;76.67
75457;SHT31;64036;48.266;14.192;2023-10-09T01:03:09;12.55;76.72
75457;SHT31;64036;48.266;14.192;2023-10-09T01:05:43;12.56;76.70
75457;SHT31;64036;48.266;14.192;2023-10-09T01:08:26;12.57;76.71
75457;SHT31;64036;48.266;14.192;2023-10-09T01:11:15;12.58;76.70
75457;SHT31;64036;48.266;14.192;2023-10-09T01:13:54;12.58;76.73
75457;SHT31;64036;48.266;14.192;2023-10-09T01:16:36;12.59;76.73
75457;SHT31;64036;48.266;14.192;2023-10-09T01:19:03;12.58;76.84
75457;SHT31;64036;48.266;14.192;2023-10-09T01:21:38;12.58;76.89
75457;SHT31;64036;48.266;14.192;2023-10-09T01:24:07;12.58;76.87
75457;SHT31;64036;48.266;14.192;2023-10-09T01:26:37;12.60;76.84
75457;SHT31;64036;48.266;14.192;2023-10-09T01:29:14;12.61;76.90
75457;SHT31;64036;48.266;14.192;2023-10-09T01:31:48;12.61;76.94
75457;SHT31;64036;48.266;14.192;2023-10-09T01:34:24;12.59;77.06
75457;SHT31;64036;48.266;14.192;2023-10-09T01:37:07;12.57;77.16
75457;SHT31;64036;48.266;14.192;2023-10-09T01:39:38;12.59;77.16
75457;SHT31;64036;48.266;14.192;2023-10-09T01:42:08;12.61;77.05
75457;SHT31;64036;48.266;14.192;2023-10-09T01:44:35;12.63;76.95
75457;SHT31;64036;48.266;14.192;2023-10-09T01:47:08;12.62;76.93
75457;SHT31;64036;48.266;14.192;2023-10-09T01:49:39;12.61;76.90
75457;SHT31;64036;48.266;14.192;2023-10-09T01:52:15;12.59;76.87
75457;SHT31;64036;48.266;14.192;2023-10-09T01:54:42;12.56;76.88
75457;SHT31;64036;48.266;14.192;2023-10-09T01:57:13;12.55;76.85
75457;SHT31;64036;48.266;14.192;2023-10-09T01:59:41;12.55;76.80
75457;SHT31;64036;48.266;14.192;2023-10-09T02:02:23;12.54;76.70
75457;SHT31;64036;48.266;14.192;2023-10-09T02:04:52;12.51;76.63
75457;SHT31;64036;48.266;14.192;2023-10-09T02:07:20;12.51;76.62
75457;SHT31;64036;48.266;14.192;2023-10-09T02:09:52;12.50;76.60
75457;SHT31;64036;48.266;14.192;2023-10-09T02:12:19;12.44;76.48
75457;SHT31;64036;48.266;14.192;2023-10-09T02:14:47;12.36;76.38
75457;SHT31;64036;48.266;14.192;2023-10-09T02:17:13;12.31;76.47
75457;SHT31;64036;48.266;14.192;2023-10-09T02:19:54;12.28;76.76
75457;SHT31;64036;48.266;14.192;2023-10-09T02:22:20;12.23;76.77
75457;SHT31;64036;48.266;14.192;2023-10-09T02:24:51;12.18;76.84
75457;SHT31;64036;48.266;14.192;2023-10-09T02:27:23;12.17;76.84
75457;SHT31;64036;48.266;14.192;2023-10-09T02:30:12;12.13;76.96
75457;SHT31;64036;48.266;14.192;2023-10-09T02:32:43;12.06;77.03
75457;SHT31;64036;48.266;14.192;2023-10-09T02:35:13;12.01;77.08
75457;SHT31;64036;48.266;14.192;2023-10-09T02:37:46;12.02;77.20
75457;SHT31;64036;48.266;14.192;2023-10-09T02:40:13;12.02;77.20
75457;SHT31;64036;48.266;14.192;2023-10-09T02:42:56;12.02;77.20
75457;SHT31;64036;48.266;14.192;2023-10-09T02:45:23;12.00;77.21
75457;SHT31;64036;48.266;14.192;2023-10-09T02:47:49;11.98;77.30
75457;SHT31;64036;48.266;14.192;2023-10-09T02:50:16;11.97;77.30
75457;SHT31;64036;48.266;14.192;2023-10-09T02:52:47;11.97;77.37
75457;SHT31;64036;48.266;14.192;2023-10-09T02:55:18;11.98;77.34
75457;SHT31;64036;48.266;14.192;2023-10-09T02:57:53;11.97;77.30
75457;SHT31;64036;48.266;14.192;2023-10-09T03:00:31;11.92;77.39
75457;SHT31;64036;48.266;14.192;2023-10-09T03:02:58;11.90;77.52
75457;SHT31;64036;48.266;14.192;2023-10-09T03:05:24;11.87;77.57
75457;SHT31;64036;48.266;14.192;2023-10-09T03:07:54;11.81;77.57
75457;SHT31;64036;48.266;14.192;2023-10-09T03:10:23;11.80;77.66
75457;SHT31;64036;48.266;14.192;2023-10-09T03:12:50;11.81;77.72
75457;SHT31;64036;48.266;14.192;2023-10-09T03:15:21;11.79;77.91
75457;SHT31;64036;48.266;14.192;2023-10-09T03:17:47;11.77;78.05
75457;SHT31;64036;48.266;14.192;2023-10-09T03:20:14;11.74;78.14
75457;SHT31;64036;48.266;14.192;2023-10-09T03:22:43;11.70;78.29
75457;SHT31;64036;48.266;14.192;2023-10-09T03:25:10;11.69;78.47
75457;SHT31;64036;48.266;14.192;2023-10-09T03:27:39;11.66;78.60
75457;SHT31;64036;48.266;14.192;2023-10-09T03:30:13;11.65;78.70
75457;SHT31;64036;48.266;14.192;2023-10-09T03:32:50;11.66;78.80
75457;SHT31;64036;48.266;14.192;2023-10-09T03:35:18;11.70;78.74
75457;SHT31;64036;48.266;14.192;2023-10-09T03:37:59;11.73;78.70
75457;SHT31;64036;48.266;14.192;2023-10-09T03:40:31;11.75;78.70
75457;SHT31;64036;48.266;14.192;2023-10-09T03:42:57;11.78;78.70
75457;SHT31;64036;48.266;14.192;2023-10-09T03:45:23;11.81;78.45
75457;SHT31;64036;48.266;14.192;2023-10-09T03:47:52;11.83;77.88
75457;SHT31;64036;48.266;14.192;2023-10-09T03:50:39;11.88;77.45
75457;SHT31;64036;48.266;14.192;2023-10-09T03:53:08;11.88;77.31
75457;SHT31;64036;48.266;14.192;2023-10-09T03:55:37;11.89;76.98
75457;SHT31;64036;48.266;14.192;2023-10-09T03:58:05;11.93;76.77
75457;SHT31;64036;48.266;14.192;2023-10-09T04:00:37;11.92;76.62
75457;SHT31;64036;48.266;14.192;2023-10-09T04:03:14;11.91;76.23
75457;SHT31;64036;48.266;14.192;2023-10-09T04:05:41;11.92;76.10
75457;SHT31;64036;48.266;14.192;2023-10-09T04:08:09;11.91;75.99
75457;SHT31;64036;48.266;14.192;2023-10-09T04:10:41;11.88;76.07
75457;SHT31;64036;48.266;14.192;2023-10-09T04:13:16;11.90;75.94
75457;SHT31;64036;48.266;14.192;2023-10-09T04:15:49;11.89;75.59
75457;SHT31;64036;48.266;14.192;2023-10-09T04:18:17;11.89;75.88
75457;SHT31;64036;48.266;14.192;2023-10-09T04:20:43;11.90;75.88
75457;SHT31;64036;48.266;14.192;2023-10-09T04:23:09;11.94;75.66
75457;SHT31;64036;48.266;14.192;2023-10-09T04:25:41;11.99;75.33
75457;SHT31;64036;48.266;14.192;2023-10-09T04:28:08;11.98;75.20
75457;SHT31;64036;48.266;14.192;2023-10-09T04:30:43;11.96;75.57
75457;SHT31;64036;48.266;14.192;2023-10-09T04:33:20;11.97;75.69
75457;SHT31;64036;48.266;14.192;2023-10-09T04:38:47;12.02;75.24
75457;SHT31;64036;48.266;14.192;2023-10-09T04:41:31;12.03;75.10
75457;SHT31;64036;48.266;14.192;2023-10-09T04:44:09;12.02;75.08
75457;SHT31;64036;48.266;14.192;2023-10-09T04:46:45;12.03;75.06
75457;SHT31;64036;48.266;14.192;2023-10-09T04:49:33;12.02;74.98
75457;SHT31;64036;48.266;14.192;2023-10-09T04:52:15;12.02;74.99
75457;SHT31;64036;48.266;14.192;2023-10-09T04:55:04;11.99;75.14
75457;SHT31;64036;48.266;14.192;2023-10-09T04:57:40;11.95;75.19
75457;SHT31;64036;48.266;14.192;2023-10-09T05:00:09;11.94;75.34
75457;SHT31;64036;48.266;14.192;2023-10-09T05:02:52;11.89;75.40
75457;SHT31;64036;48.266;14.192;2023-10-09T05:05:31;11.86;75.20
75457;SHT31;64036;48.266;14.192;2023-10-09T05:08:06;11.84;75.12
75457;SHT31;64036;48.266;14.192;2023-10-09T05:16:04;11.85;74.86
75457;SHT31;64036;48.266;14.192;2023-10-09T05:19:00;11.87;75.10
75457;SHT31;64036;48.266;14.192;2023-10-09T05:21:37;11.88;75.08
75457;SHT31;64036;48.266;14.192;2023-10-09T05:24:12;11.91;75.20
75457;SHT31;64036;48.266;14.192;2023-10-09T05:26:45;11.92;75.15
75457;SHT31;64036;48.266;14.192;2023-10-09T05:29:12;11.96;74.91
75457;SHT31;64036;48.266;14.192;2023-10-09T05:31:54;12.02;74.80
75457;SHT31;64036;48.266;14.192;2023-10-09T05:34:38;12.07;74.82
75457;SHT31;64036;48.266;14.192;2023-10-09T05:37:31;12.09;75.23
75457;SHT31;64036;48.266;14.192;2023-10-09T05:39:59;12.18;75.14
75457;SHT31;64036;48.266;14.192;2023-10-09T05:42:42;12.28;74.90
75457;SHT31;64036;48.266;14.192;2023-10-09T05:45:11;12.36;74.91
75457;SHT31;64036;48.266;14.192;2023-10-09T05:47:51;12.45;74.73
75457;SHT31;64036;48.266;14.192;2023-10-09T05:50:28;12.50;74.22
75457;SHT31;64036;48.266;14.192;2023-10-09T05:53:03;12.58;73.39
75457;SHT31;64036;48.266;14.192;2023-10-09T05:55:29;12.66;72.81
75457;SHT31;64036;48.266;14.192;2023-10-09T05:58:25;12.80;72.78
75457;SHT31;64036;48.266;14.192;2023-10-09T06:01:09;12.95;73.26
75457;SHT31;64036;48.266;14.192;2023-10-09T06:03:53;13.16;73.08
75457;SHT31;64036;48.266;14.192;2023-10-09T06:06:22;13.22;72.97
75457;SHT31;64036;48.266;14.192;2023-10-09T06:09:20;13.34;73.33
75457;SHT31;64036;48.266;14.192;2023-10-09T06:11:46;13.46;73.48
75457;SHT31;64036;48.266;14.192;2023-10-09T06:14:18;13.56;73.63
75457;SHT31;64036;48.266;14.192;2023-10-09T06:17:11;13.91;73.70
75457;SHT31;64036;48.266;14.192;2023-10-09T06:19:37;14.33;73.68
75457;SHT31;64036;48.266;14.192;2023-10-09T06:22:09;14.80;73.17
75457;SHT31;64036;48.266;14.192;2023-10-09T06:25:04;15.15;72.69
75457;SHT31;64036;48.266;14.192;2023-10-09T06:27:34;15.35;72.23
75457;SHT31;64036;48.266;14.192;2023-10-09T06:30:00;15.60;71.83
75457;SHT31;64036;48.266;14.192;2023-10-09T06:32:44;16.05;71.42
75457;SHT31;64036;48.266;14.192;2023-10-09T06:35:16;16.19;70.94
75457;SHT31;64036;48.266;14.192;2023-10-09T06:37:55;16.15;70.72
75457;SHT31;64036;48.266;14.192;2023-10-09T06:43:19;16.23;70.30
75457;SHT31;64036;48.266;14.192;2023-10-09T06:45:46;16.49;69.94
75457;SHT31;64036;48.266;14.192;2023-10-09T06:48:19;16.77;69.06
75457;SHT31;64036;48.266;14.192;2023-10-09T06:51:02;17.25;68.58
75457;SHT31;64036;48.266;14.192;2023-10-09T06:53:50;17.32;67.31
75457;SHT31;64036;48.266;14.192;2023-10-09T07:01:33;18.06;66.56
75457;SHT31;64036;48.266;14.192;2023-10-09T07:04:11;18.63;65.46
75457;SHT31;64036;48.266;14.192;2023-10-09T07:06:49;18.77;64.66
75457;SHT31;64036;48.266;14.192;2023-10-09T07:09:22;18.76;64.43
75457;SHT31;64036;48.266;14.192;2023-10-09T07:11:52;18.94;64.18
75457;SHT31;64036;48.266;14.192;2023-10-09T07:14:21;19.08;63.88
75457;SHT31;64036;48.266;14.192;2023-10-09T07:19:32;18.84;63.42
75457;SHT31;64036;48.266;14.192;2023-10-09T07:22:23;18.78;63.15
75457;SHT31;64036;48.266;14.192;2023-10-09T07:24:55;19.28;62.43
75457;SHT31;64036;48.266;14.192;2023-10-09T07:27:24;20.27;61.25
75457;SHT31;64036;48.266;14.192;2023-10-09T07:30:11;21.25;59.83
75457;SHT31;64036;48.266;14.192;2023-10-09T07:33:01;21.66;58.97
75457;SHT31;64036;48.266;14.192;2023-10-09T07:35:41;21.80;58.12
75457;SHT31;64036;48.266;14.192;2023-10-09T07:38:20;21.41;57.96
75457;SHT31;64036;48.266;14.192;2023-10-09T07:40:49;20.95;58.14
75457;SHT31;64036;48.266;14.192;2023-10-09T07:43:32;20.42;58.48
75457;SHT31;64036;48.266;14.192;2023-10-09T07:46:07;19.88;59.13
75457;SHT31;64036;48.266;14.192;2023-10-09T07:48:54;19.31;59.91
75457;SHT31;64036;48.266;14.192;2023-10-09T07:51:21;19.04;60.31
75457;SHT31;64036;48.266;14.192;2023-10-09T07:53:55;18.88;60.91
75457;SHT31;64036;48.266;14.192;2023-10-09T07:56:25;18.96;61.31
75457;SHT31;64036;48.266;14.192;2023-10-09T07:58:58;18.96;61.34
75457;SHT31;64036;48.266;14.192;2023-10-09T08:01:25;18.91;61.49
75457;SHT31;64036;48.266;14.192;2023-10-09T08:04:01;18.84;61.48
75457;SHT31;64036;48.266;14.192;2023-10-09T08:06:30;18.79;61.61
75457;SHT31;64036;48.266;14.192;2023-10-09T08:09:07;18.92;61.69
75457;SHT31;64036;48.266;14.192;2023-10-09T08:11:37;19.98;60.66
75457;SHT31;64036;48.266;14.192;2023-10-09T08:14:13;20.74;59.05
75457;SHT31;64036;48.266;14.192;2023-10-09T08:19:15;20.50;58.56
75457;SHT31;64036;48.266;14.192;2023-10-09T08:21:59;20.36;58.74
75457;SHT31;64036;48.266;14.192;2023-10-09T08:24:43;20.21;58.71
75457;SHT31;64036;48.266;14.192;2023-10-09T08:27:17;20.16;59.14
75457;SHT31;64036;48.266;14.192;2023-10-09T08:29:59;20.16;59.47
75457;SHT31;64036;48.266;14.192;2023-10-09T08:32:53;20.14;59.49
75457;SHT31;64036;48.266;14.192;2023-10-09T08:37:59;20.19;59.22
75457;SHT31;64036;48.266;14.192;2023-10-09T08:40:33;20.14;59.07
75457;SHT31;64036;48.266;14.192;2023-10-09T08:45:53;20.06;58.91
75457;SHT31;64036;48.266;14.192;2023-10-09T08:48:26;19.97;58.84
75457;SHT31;64036;48.266;14.192;2023-10-09T08:50:53;19.87;58.63
75457;SHT31;64036;48.266;14.192;2023-10-09T08:53:19;19.80;58.65
75457;SHT31;64036;48.266;14.192;2023-10-09T08:55:47;19.80;58.64
75457;SHT31;64036;48.266;14.192;2023-10-09T08:58:16;19.81;58.56
75457;SHT31;64036;48.266;14.192;2023-10-09T09:00:50;19.78;58.34
75457;SHT31;64036;48.266;14.192;2023-10-09T09:03:18;19.81;58.45
75457;SHT31;64036;48.266;14.192;2023-10-09T09:05:57;20.02;58.68
75457;SHT31;64036;48.266;14.192;2023-10-09T09:08:26;20.16;58.19
75457;SHT31;64036;48.266;14.192;2023-10-09T09:11:00;20.21;58.08
75457;SHT31;64036;48.266;14.192;2023-10-09T09:13:48;20.21;58.30
75457;SHT31;64036;48.266;14.192;2023-10-09T09:16:31;20.14;58.10
75457;SHT31;64036;48.266;14.192;2023-10-09T09:19:04;20.08;58.74
75457;SHT31;64036;48.266;14.192;2023-10-09T09:21:35;20.00;58.92
75457;SHT31;64036;48.266;14.192;2023-10-09T09:24:12;19.87;59.12
75457;SHT31;64036;48.266;14.192;2023-10-09T09:26:43;19.76;59.53
75457;SHT31;64036;48.266;14.192;2023-10-09T09:29:12;19.70;59.60
75457;SHT31;64036;48.266;14.192;2023-10-09T09:32:16;19.73;60.01
75457;SHT31;64036;48.266;14.192;2023-10-09T09:34:46;19.75;59.83
75457;SHT31;64036;48.266;14.192;2023-10-09T09:37:25;19.71;59.94
75457;SHT31;64036;48.266;14.192;2023-10-09T09:40:00;19.70;60.27
75457;SHT31;64036;48.266;14.192;2023-10-09T09:42:40;19.81;60.47
75457;SHT31;64036;48.266;14.192;2023-10-09T09:45:13;19.95;60.64
75457;SHT31;64036;48.266;14.192;2023-10-09T09:47:44;20.30;60.70
75457;SHT31;64036;48.266;14.192;2023-10-09T09:50:17;20.62;60.39
75457;SHT31;64036;48.266;14.192;2023-10-09T09:52:54;20.90;59.90
75457;SHT31;64036;48.266;14.192;2023-10-09T09:55:24;21.05;59.67
75457;SHT31;64036;48.266;14.192;2023-10-09T09:57:57;21.08;58.84
75457;SHT31;64036;48.266;14.192;2023-10-09T10:00:25;21.08;58.93
75457;SHT31;64036;48.266;14.192;2023-10-09T10:03:09;21.11;58.96
75457;SHT31;64036;48.266;14.192;2023-10-09T10:05:38;21.23;58.91
75457;SHT31;64036;48.266;14.192;2023-10-09T10:08:08;21.42;59.05
75457;SHT31;64036;48.266;14.192;2023-10-09T10:10:39;21.75;58.67
75457;SHT31;64036;48.266;14.192;2023-10-09T10:21:43;22.90;57.05
75457;SHT31;64036;48.266;14.192;2023-10-09T10:29:43;23.99;54.46
75457;SHT31;64036;48.266;14.192;2023-10-09T10:32:11;24.07;54.57
75457;SHT31;64036;48.266;14.192;2023-10-09T10:40:30;24.83;53.17
75457;SHT31;64036;48.266;14.192;2023-10-09T10:43:17;24.87;52.95
75457;SHT31;64036;48.266;14.192;2023-10-09T10:46:05;24.68;51.84
75457;SHT31;64036;48.266;14.192;2023-10-09T10:48:51;24.47;52.26
75457;SHT31;64036;48.266;14.192;2023-10-09T10:51:25;24.30;52.70
75457;SHT31;64036;48.266;14.192;2023-10-09T10:54:02;24.45;52.98
75457;SHT31;64036;48.266;14.192;2023-10-09T10:56:47;24.45;51.94
75457;SHT31;64036;48.266;14.192;2023-10-09T10:59:13;24.58;52.05
75457;SHT31;64036;48.266;14.192;2023-10-09T11:01:48;24.82;51.88
75457;SHT31;64036;48.266;14.192;2023-10-09T11:04:39;24.83;51.49
75457;SHT31;64036;48.266;14.192;2023-10-09T11:07:09;24.74;51.84
75457;SHT31;64036;48.266;14.192;2023-10-09T11:09:50;24.64;51.62
75457;SHT31;64036;48.266;14.192;2023-10-09T11:15:08;24.19;52.15
75457;SHT31;64036;48.266;14.192;2023-10-09T11:17:58;24.07;52.34
75457;SHT31;64036;48.266;14.192;2023-10-09T11:20:35;23.86;52.06
75457;SHT31;64036;48.266;14.192;2023-10-09T11:23:18;23.55;52.28
75457;SHT31;64036;48.266;14.192;2023-10-09T11:26:01;23.30;52.53
75457;SHT31;64036;48.266;14.192;2023-10-09T11:29:09;23.14;52.98
75457;SHT31;64036;48.266;14.192;2023-10-09T11:35:12;23.01;53.10
75457;SHT31;64036;48.266;14.192;2023-10-09T11:37:44;22.93;53.11
75457;SHT31;64036;48.266;14.192;2023-10-09T11:40:31;22.88;53.44
75457;SHT31;64036;48.266;14.192;2023-10-09T11:43:18;22.89;53.40
75457;SHT31;64036;48.266;14.192;2023-10-09T11:46:11;22.81;53.39
75457;SHT31;64036;48.266;14.192;2023-10-09T11:48:38;22.72;53.48
75457;SHT31;64036;48.266;14.192;2023-10-09T11:51:33;22.57;53.82
75457;SHT31;64036;48.266;14.192;2023-10-09T11:54:03;22.56;54.38
75457;SHT31;64036;48.266;14.192;2023-10-09T11:56:29;22.59;54.60
75457;SHT31;64036;48.266;14.192;2023-10-09T11:58:57;22.65;55.15
75457;SHT31;64036;48.266;14.192;2023-10-09T12:01:23;22.72;55.08
75457;SHT31;64036;48.266;14.192;2023-10-09T12:03:51;22.78;54.79
75457;SHT31;64036;48.266;14.192;2023-10-09T12:06:19;22.80;54.92
75457;SHT31;64036;48.266;14.192;2023-10-09T12:08:49;22.84;54.79
75457;SHT31;64036;48.266;14.192;2023-10-09T12:11:15;22.78;55.04
75457;SHT31;64036;48.266;14.192;2023-10-09T12:13:50;22.67;54.73
75457;SHT31;64036;48.266;14.192;2023-10-09T12:16:24;22.43;54.80
75457;SHT31;64036;48.266;14.192;2023-10-09T12:18:56;22.23;55.27
75457;SHT31;64036;48.266;14.192;2023-10-09T12:21:23;22.07;55.76
75457;SHT31;64036;48.266;14.192;2023-10-09T12:23:49;21.94;55.76
75457;SHT31;64036;48.266;14.192;2023-10-09T12:26:15;21.81;55.95
75457;SHT31;64036;48.266;14.192;2023-10-09T12:28:41;21.67;56.23
75457;SHT31;64036;48.266;14.192;2023-10-09T12:31:14;21.51;56.48
75457;SHT31;64036;48.266;14.192;2023-10-09T12:33:41;21.40;56.82
75457;SHT31;64036;48.266;14.192;2023-10-09T12:36:13;21.31;57.31
75457;SHT31;64036;48.266;14.192;2023-10-09T12:38:49;21.22;57.47
75457;SHT31;64036;48.266;14.192;2023-10-09T12:41:19;21.15;57.75
75457;SHT31;64036;48.266;14.192;2023-10-09T12:43:58;21.10;58.15
75457;SHT31;64036;48.266;14.192;2023-10-09T12:46:26;21.07;58.44
75457;SHT31;64036;48.266;14.192;2023-10-09T12:48:53;21.03;58.70
75457;SHT31;64036;48.266;14.192;2023-10-09T12:51:22;20.99;59.04
75457;SHT31;64036;48.266;14.192;2023-10-09T12:53:55;20.96;59.25
75457;SHT31;64036;48.266;14.192;2023-10-09T12:56:26;20.95;59.45
75457;SHT31;64036;48.266;14.192;2023-10-09T12:59:02;20.99;59.58
75457;SHT31;64036;48.266;14.192;2023-10-09T13:01:32;21.02;59.51
75457;SHT31;64036;48.266;14.192;2023-10-09T13:04:07;21.03;59.56
75457;SHT31;64036;48.266;14.192;2023-10-09T13:06:45;21.05;59.52
75457;SHT31;64036;48.266;14.192;2023-10-09T13:09:15;21.01;59.80
75457;SHT31;64036;48.266;14.192;2023-10-09T13:12:05;20.99;60.05
75457;SHT31;64036;48.266;14.192;2023-10-09T13:14:33;20.94;60.12
75457;SHT31;64036;48.266;14.192;2023-10-09T13:17:00;20.90;60.22
75457;SHT31;64036;48.266;14.192;2023-10-09T13:19:34;20.84;60.23
75457;SHT31;64036;48.266;14.192;2023-10-09T13:22:00;20.71;60.41
75457;SHT31;64036;48.266;14.192;2023-10-09T13:24:28;20.58;60.67
75457;SHT31;64036;48.266;14.192;2023-10-09T13:26:56;20.44;60.58
75457;SHT31;64036;48.266;14.192;2023-10-09T13:29:23;20.34;60.83
75457;SHT31;64036;48.266;14.192;2023-10-09T13:31:50;20.25;61.15
75457;SHT31;64036;48.266;14.192;2023-10-09T13:34:22;20.13;61.34
75457;SHT31;64036;48.266;14.192;2023-10-09T13:36:53;20.06;61.64
75457;SHT31;64036;48.266;14.192;2023-10-09T13:39:20;20.04;61.96
75457;SHT31;64036;48.266;14.192;2023-10-09T13:41:53;20.03;62.36
75457;SHT31;64036;48.266;14.192;2023-10-09T13:44:27;20.03;62.68
75457;SHT31;64036;48.266;14.192;2023-10-09T13:46:54;20.06;62.88
75457;SHT31;64036;48.266;14.192;2023-10-09T13:49:24;20.10;62.67
75457;SHT31;64036;48.266;14.192;2023-10-09T13:51:57;20.15;62.79
75457;SHT31;64036;48.266;14.192;2023-10-09T13:54:25;20.21;62.49
75457;SHT31;64036;48.266;14.192;2023-10-09T13:57:05;20.22;62.40
75457;SHT31;64036;48.266;14.192;2023-10-09T13:59:33;20.23;62.39
75457;SHT31;64036;48.266;14.192;2023-10-09T14:02:00;20.21;62.48
75457;SHT31;64036;48.266;14.192;2023-10-09T14:04:27;20.18;62.45
75457;SHT31;64036;48.266;14.192;2023-10-09T14:06:54;20.14;62.42
75457;SHT31;64036;48.266;14.192;2023-10-09T14:09:24;20.06;62.34
75457;SHT31;64036;48.266;14.192;2023-10-09T14:12:03;19.96;62.43
75457;SHT31;64036;48.266;14.192;2023-10-09T14:17:12;19.83;62.55
75457;SHT31;64036;48.266;14.192;2023-10-09T14:19:48;19.77;62.71
75457;SHT31;64036;48.266;14.192;2023-10-09T14:22:25;19.75;62.96
75457;SHT31;64036;48.266;14.192;2023-10-09T14:24:54;19.76;63.17
75457;SHT31;64036;48.266;14.192;2023-10-09T14:27:21;19.73;63.45
75457;SHT31;64036;48.266;14.192;2023-10-09T14:29:52;19.69;63.65
75457;SHT31;64036;48.266;14.192;2023-10-09T14:32:24;19.62;63.70
75457;SHT31;64036;48.266;14.192;2023-10-09T14:34:54;19.54;63.86
75457;SHT31;64036;48.266;14.192;2023-10-09T14:37:26;19.47;63.90
75457;SHT31;64036;48.266;14.192;2023-10-09T14:39:52;19.40;64.08
75457;SHT31;64036;48.266;14.192;2023-10-09T14:42:20;19.35;64.36
75457;SHT31;64036;48.266;14.192;2023-10-09T14:44:48;19.35;64.54
75457;SHT31;64036;48.266;14.192;2023-10-09T14:47:15;19.34;64.72
75457;SHT31;64036;48.266;14.192;2023-10-09T14:49:46;19.31;64.87
75457;SHT31;64036;48.266;14.192;2023-10-09T14:52:13;19.27;64.90
75457;SHT31;64036;48.266;14.192;2023-10-09T14:54:44;19.21;65.21
75457;SHT31;64036;48.266;14.192;2023-10-09T14:57:13;19.17;65.69
75457;SHT31;64036;48.266;14.192;2023-10-09T14:59:39;19.12;66.11
75457;SHT31;64036;48.266;14.192;2023-10-09T15:02:08;19.08;66.46
75457;SHT31;64036;48.266;14.192;2023-10-09T15:04:33;19.05;66.42
75457;SHT31;64036;48.266;14.192;2023-10-09T15:07:03;19.04;66.35
75457;SHT31;64036;48.266;14.192;2023-10-09T15:09:32;19.05;66.30
75457;SHT31;64036;48.266;14.192;2023-10-09T15:12:01;19.08;66.28
75457;SHT31;64036;48.266;14.192;2023-10-09T15:14:28;19.13;66.04
75457;SHT31;64036;48.266;14.192;2023-10-09T15:16:53;19.19;65.89
75457;SHT31;64036;48.266;14.192;2023-10-09T15:19:19;19.24;65.89
75457;SHT31;64036;48.266;14.192;2023-10-09T15:21:54;19.30;65.85
75457;SHT31;64036;48.266;14.192;2023-10-09T15:24:21;19.33;65.81
75457;SHT31;64036;48.266;14.192;2023-10-09T15:26:48;19.37;65.78
75457;SHT31;64036;48.266;14.192;2023-10-09T15:29:20;19.39;65.58
75457;SHT31;64036;48.266;14.192;2023-10-09T15:31:56;19.41;65.30
75457;SHT31;64036;48.266;14.192;2023-10-09T15:34:32;19.40;65.43
75457;SHT31;64036;48.266;14.192;2023-10-09T15:37:01;19.40;65.46
75457;SHT31;64036;48.266;14.192;2023-10-09T15:39:33;19.39;65.50
75457;SHT31;64036;48.266;14.192;2023-10-09T15:42:00;19.40;65.53
75457;SHT31;64036;48.266;14.192;2023-10-09T15:44:32;19.39;65.68
75457;SHT31;64036;48.266;14.192;2023-10-09T15:47:05;19.37;65.86
75457;SHT31;64036;48.266;14.192;2023-10-09T15:49:33;19.34;65.96
75457;SHT31;64036;48.266;14.192;2023-10-09T15:52:03;19.32;66.16
75457;SHT31;64036;48.266;14.192;2023-10-09T15:54:29;19.25;66.39
75457;SHT31;64036;48.266;14.192;2023-10-09T15:56:57;19.17;66.58
75457;SHT31;64036;48.266;14.192;2023-10-09T15:59:23;19.11;66.76
75457;SHT31;64036;48.266;14.192;2023-10-09T16:01:52;19.05;66.90
75457;SHT31;64036;48.266;14.192;2023-10-09T16:04:18;19.02;67.00
75457;SHT31;64036;48.266;14.192;2023-10-09T16:06:44;18.99;66.95
75457;SHT31;64036;48.266;14.192;2023-10-09T16:09:11;18.95;66.83
75457;SHT31;64036;48.266;14.192;2023-10-09T16:11:39;18.94;66.89
75457;SHT31;64036;48.266;14.192;2023-10-09T16:14:05;18.89;66.95
75457;SHT31;64036;48.266;14.192;2023-10-09T16:16:34;18.87;67.08
75457;SHT31;64036;48.266;14.192;2023-10-09T16:19:06;18.83;67.17
75457;SHT31;64036;48.266;14.192;2023-10-09T16:21:36;18.80;67.36
75457;SHT31;64036;48.266;14.192;2023-10-09T16:24:03;18.76;67.59
75457;SHT31;64036;48.266;14.192;2023-10-09T16:26:35;18.72;67.74
75457;SHT31;64036;48.266;14.192;2023-10-09T16:29:08;18.68;67.89
75457;SHT31;64036;48.266;14.192;2023-10-09T16:31:35;18.65;67.96
75457;SHT31;64036;48.266;14.192;2023-10-09T16:34:02;18.62;68.06
75457;SHT31;64036;48.266;14.192;2023-10-09T16:36:30;18.57;68.14
75457;SHT31;64036;48.266;14.192;2023-10-09T16:38:56;18.53;68.30
75457;SHT31;64036;48.266;14.192;2023-10-09T16:41:24;18.49;68.31
75457;SHT31;64036;48.266;14.192;2023-10-09T16:43:51;18.48;68.31
75457;SHT31;64036;48.266;14.192;2023-10-09T16:46:20;18.46;68.26
75457;SHT31;64036;48.266;14.192;2023-10-09T16:48:49;18.48;68.25
75457;SHT31;64036;48.266;14.192;2023-10-09T16:51:20;18.46;68.29